Wetterdaten: Woche 28.03.16 - 03.04.16 (KW13)
Datum Zeit Auen-Temp. Temp gefhlt Luftfeuchte Luftdruck Regen Wind Richtung Sonnenschein Taupunkt Windben
28.03.2016 00:00 3,3 C 3,1 C 88 % 1013,8 hPa 0,0 mm 0,1 km/h (0 Bft) N 0,00 h 1,4 C 0,0 km/h (0 Bft)
28.03.2016 01:00 3,3 C 3,2 C 89 % 1013,4 hPa 0,0 mm 0,3 km/h (0 Bft) O-SO 0,00 h 1,7 C 0,5 km/h (0 Bft)
28.03.2016 02:00 3,1 C 3,0 C 88 % 1012,7 hPa 0,0 mm 0,8 km/h (0 Bft) NO 0,00 h 1,4 C 0,8 km/h (0 Bft)
28.03.2016 03:00 3,1 C 3,0 C 89 % 1012,2 hPa 0,0 mm 0,1 km/h (0 Bft) N 0,00 h 1,5 C 0,3 km/h (0 Bft)
28.03.2016 04:00 3,0 C 2,9 C 89 % 1011,6 hPa 0,0 mm 0,0 km/h (0 Bft) N 0,00 h 1,4 C 0,0 km/h (0 Bft)
28.03.2016 05:00 2,5 C 2,3 C 89 % 1010,9 hPa 0,0 mm 0,0 km/h (0 Bft) N 0,00 h 0,9 C 0,0 km/h (0 Bft)
28.03.2016 06:00 1,2 C 0,7 C 89 % 1010,2 hPa 0,0 mm 0,0 km/h (0 Bft) N 0,00 h -0,4 C 0,0 km/h (0 Bft)
28.03.2016 07:00 0,2 C -0,2 C 89 % 1009,1 hPa 0,0 mm 0,0 km/h (0 Bft) N 0,00 h -1,4 C 0,0 km/h (0 Bft)
28.03.2016 08:00 1,4 C 6,4 C 87 % 1008,3 hPa 0,0 mm 0,0 km/h (0 Bft) N 0,75 h -0,5 C 0,0 km/h (0 Bft)
28.03.2016 09:00 5,8 C 13,1 C 84 % 1008,8 hPa 0,0 mm 1,7 km/h (1 Bft) W 1,00 h 3,4 C 3,9 km/h (1 Bft)
28.03.2016 10:00 9,7 C 15,2 C 74 % 1009,9 hPa 0,0 mm 6,9 km/h (2 Bft) W 1,00 h 5,4 C 8,9 km/h (2 Bft)
28.03.2016 11:00 12,1 C 17,1 C 63 % 1010,2 hPa 0,0 mm 8,8 km/h (2 Bft) NW 1,00 h 5,2 C 13,3 km/h (3 Bft)
28.03.2016 12:00 13,0 C 16,5 C 56 % 1010,1 hPa 0,0 mm 9,7 km/h (2 Bft) W 0,33 h 4,4 C 11,0 km/h (2 Bft)
28.03.2016 13:00 13,8 C 17,3 C 50 % 1009,4 hPa 0,0 mm 9,5 km/h (2 Bft) W-NW 0,50 h 3,5 C 12,0 km/h (2 Bft)
28.03.2016 14:00 13,9 C 17,0 C 48 % 1009,0 hPa 0,0 mm 12,3 km/h (3 Bft) NW 0,17 h 3,0 C 15,4 km/h (3 Bft)
28.03.2016 15:00 13,8 C 16,4 C 49 % 1008,5 hPa 0,0 mm 10,1 km/h (2 Bft) NW 0,25 h 3,4 C 13,2 km/h (3 Bft)
28.03.2016 16:00 12,7 C 14,0 C 52 % 1008,2 hPa 0,0 mm 11,3 km/h (2 Bft) NW 0,00 h 3,1 C 13,1 km/h (3 Bft)
28.03.2016 17:00 11,7 C 12,6 C 52 % 1007,7 hPa 0,0 mm 4,4 km/h (1 Bft) O-NO 0,00 h 2,2 C 4,6 km/h (1 Bft)
28.03.2016 18:00 11,1 C 12,0 C 54 % 1006,9 hPa 0,0 mm 3,8 km/h (1 Bft) O-NO 0,00 h 2,2 C 6,6 km/h (2 Bft)
28.03.2016 19:00 9,3 C 9,3 C 57 % 1006,9 hPa 0,0 mm 1,6 km/h (1 Bft) S 0,00 h 1,3 C 2,6 km/h (1 Bft)
28.03.2016 20:00 6,9 C 6,7 C 65 % 1007,1 hPa 0,0 mm 2,6 km/h (1 Bft) SO 0,00 h 0,8 C 3,6 km/h (1 Bft)
28.03.2016 21:00 4,6 C 4,1 C 73 % 1007,5 hPa 0,0 mm 0,5 km/h (0 Bft) O-NO 0,00 h 0,1 C 1,1 km/h (1 Bft)
28.03.2016 22:00 4,2 C 3,8 C 77 % 1008,1 hPa 0,0 mm 0,6 km/h (0 Bft) SO 0,00 h 0,6 C 1,2 km/h (1 Bft)
28.03.2016 23:00 3,6 C 3,2 C 78 % 1008,3 hPa 0,0 mm 0,0 km/h (0 Bft) N 0,00 h 0,1 C 0,0 km/h (0 Bft)
29.03.2016 00:00 5,5 C 5,2 C 72 % 1008,6 hPa 0,0 mm 5,8 km/h (1 Bft) S 0,00 h 0,8 C 9,9 km/h (2 Bft)
29.03.2016 01:00 6,9 C 6,5 C 61 % 1009,0 hPa 0,0 mm 10,0 km/h (2 Bft) S 0,00 h -0,1 C 11,4 km/h (2 Bft)
29.03.2016 02:00 6,7 C 6,4 C 58 % 1008,9 hPa 0,0 mm 8,0 km/h (2 Bft) W-SW 0,00 h -0,9 C 10,6 km/h (2 Bft)
29.03.2016 03:00 6,5 C 6,2 C 58 % 1009,0 hPa 0,0 mm 7,5 km/h (2 Bft) W-SW 0,00 h -1,3 C 8,8 km/h (2 Bft)
29.03.2016 04:00 7,5 C 7,1 C 55 % 1009,3 hPa 0,0 mm 11,3 km/h (2 Bft) W-SW 0,00 h -0,9 C 17,6 km/h (3 Bft)
29.03.2016 05:00 7,5 C 7,0 C 56 % 1010,0 hPa 0,0 mm 15,7 km/h (3 Bft) W 0,00 h -0,8 C 21,4 km/h (4 Bft)
29.03.2016 06:00 5,2 C 4,7 C 68 % 1010,5 hPa 0,0 mm 8,3 km/h (2 Bft) W-SW 0,00 h -0,3 C 11,3 km/h (2 Bft)
29.03.2016 07:00 5,2 C 4,9 C 69 % 1010,4 hPa 0,0 mm 6,6 km/h (2 Bft) SW 0,00 h -0,1 C 8,7 km/h (2 Bft)
29.03.2016 08:00 6,4 C 8,4 C 67 % 1011,8 hPa 0,0 mm 10,2 km/h (2 Bft) W-SW 0,33 h 0,8 C 9,2 km/h (2 Bft)
29.03.2016 09:00 7,5 C 9,4 C 66 % 1012,8 hPa 0,0 mm 14,3 km/h (3 Bft) W 0,50 h 1,5 C 15,6 km/h (3 Bft)
29.03.2016 10:00 7,4 C 9,1 C 69 % 1013,8 hPa 0,0 mm 16,1 km/h (3 Bft) W 0,00 h 2,0 C 23,3 km/h (4 Bft)
29.03.2016 11:00 8,7 C 11,4 C 67 % 1014,5 hPa 1,4 mm 12,5 km/h (3 Bft) W 0,50 h 2,8 C 15,6 km/h (3 Bft)
29.03.2016 12:00 8,6 C 10,8 C 71 % 1014,8 hPa 0,0 mm 13,3 km/h (3 Bft) W-SW 0,25 h 3,6 C 16,2 km/h (3 Bft)
29.03.2016 13:00 10,2 C 12,4 C 65 % 1014,7 hPa 0,0 mm 14,6 km/h (3 Bft) W 0,00 h 3,8 C 21,5 km/h (4 Bft)
29.03.2016 14:00 11,2 C 13,8 C 58 % 1014,2 hPa 0,7 mm 17,7 km/h (3 Bft) W 0,17 h 3,3 C 20,4 km/h (4 Bft)
29.03.2016 15:00 11,6 C 13,7 C 56 % 1013,8 hPa 0,0 mm 18,5 km/h (3 Bft) W 0,00 h 3,1 C 24,2 km/h (4 Bft)
29.03.2016 16:00 12,0 C 14,1 C 54 % 1013,3 hPa 0,0 mm 15,9 km/h (3 Bft) W 0,08 h 3,0 C 16,3 km/h (3 Bft)
29.03.2016 17:00 11,6 C 12,6 C 54 % 1013,0 hPa 0,0 mm 11,8 km/h (2 Bft) W-SW 0,00 h 2,7 C 13,0 km/h (3 Bft)
29.03.2016 18:00 10,6 C 11,1 C 56 % 1013,1 hPa 0,0 mm 7,5 km/h (2 Bft) W-SW 0,00 h 2,1 C 9,1 km/h (2 Bft)
29.03.2016 19:00 8,6 C 8,5 C 59 % 1012,9 hPa 0,0 mm 2,7 km/h (1 Bft) SW 0,00 h 1,1 C 2,6 km/h (1 Bft)
29.03.2016 20:00 7,7 C 7,7 C 63 % 1013,0 hPa 0,0 mm 3,3 km/h (1 Bft) SW 0,00 h 1,2 C 5,4 km/h (1 Bft)
29.03.2016 21:00 7,6 C 7,4 C 65 % 1013,7 hPa 0,0 mm 6,9 km/h (2 Bft) W 0,00 h 1,5 C 9,0 km/h (2 Bft)
29.03.2016 22:00 7,6 C 7,3 C 68 % 1014,3 hPa 0,0 mm 9,2 km/h (2 Bft) W 0,00 h 1,9 C 10,1 km/h (2 Bft)
29.03.2016 23:00 6,6 C 6,5 C 72 % 1014,4 hPa 0,0 mm 1,5 km/h (1 Bft) SW 0,00 h 1,9 C 2,9 km/h (1 Bft)
30.03.2016 00:00 6,3 C 6,2 C 74 % 1014,7 hPa 0,0 mm 1,4 km/h (1 Bft) S-SO 0,00 h 2,1 C 1,7 km/h (1 Bft)
30.03.2016 01:00 5,7 C 5,5 C 78 % 1014,0 hPa 0,0 mm 0,0 km/h (0 Bft) NO 0,00 h 2,1 C 0,0 km/h (0 Bft)
30.03.2016 02:00 5,8 C 5,8 C 77 % 1013,7 hPa 0,0 mm 0,4 km/h (0 Bft) O-NO 0,00 h 2,2 C 0,8 km/h (0 Bft)
30.03.2016 03:00 5,9 C 5,9 C 77 % 1013,4 hPa 0,0 mm 2,7 km/h (1 Bft) SW 0,00 h 2,2 C 4,9 km/h (1 Bft)
30.03.2016 04:00 6,4 C 6,3 C 77 % 1013,2 hPa 0,0 mm 2,0 km/h (1 Bft) O 0,00 h 2,7 C 2,1 km/h (1 Bft)
30.03.2016 05:00 5,9 C 5,9 C 78 % 1013,0 hPa 0,0 mm 0,3 km/h (0 Bft) N 0,00 h 2,4 C 0,2 km/h (0 Bft)
30.03.2016 06:00 6,2 C 6,1 C 79 % 1012,8 hPa 0,0 mm 0,1 km/h (0 Bft) N 0,00 h 2,9 C 0,0 km/h (0 Bft)
30.03.2016 07:00 6,6 C 6,5 C 80 % 1012,5 hPa 0,0 mm 0,8 km/h (0 Bft) N-NO 0,00 h 3,4 C 1,1 km/h (1 Bft)
30.03.2016 08:00 7,7 C 8,4 C 76 % 1012,7 hPa 0,0 mm 0,3 km/h (0 Bft) W-NW 0,00 h 3,8 C 0,6 km/h (0 Bft)
30.03.2016 09:00 9,9 C 12,1 C 72 % 1013,2 hPa 0,0 mm 3,7 km/h (1 Bft) SW 0,00 h 5,0 C 5,6 km/h (1 Bft)
30.03.2016 10:00 12,2 C 14,9 C 63 % 1013,7 hPa 0,0 mm 9,9 km/h (2 Bft) W 0,25 h 5,3 C 15,8 km/h (3 Bft)
30.03.2016 11:00 13,2 C 16,0 C 59 % 1014,1 hPa 0,0 mm 8,9 km/h (2 Bft) W-SW 0,08 h 5,3 C 10,6 km/h (2 Bft)
30.03.2016 12:00 14,4 C 17,8 C 57 % 1013,9 hPa 0,0 mm 8,7 km/h (2 Bft) NW 0,25 h 5,9 C 11,1 km/h (2 Bft)
30.03.2016 13:00 16,2 C 19,5 C 53 % 1014,1 hPa 0,0 mm 10,7 km/h (2 Bft) NW 0,17 h 6,6 C 12,6 km/h (3 Bft)
30.03.2016 14:00 15,2 C 17,4 C 54 % 1014,0 hPa 0,0 mm 11,8 km/h (2 Bft) W 0,00 h 5,9 C 15,0 km/h (3 Bft)
30.03.2016 15:00 14,7 C 16,3 C 54 % 1013,8 hPa 0,0 mm 12,7 km/h (3 Bft) W-SW 0,00 h 5,5 C 15,3 km/h (3 Bft)
30.03.2016 16:00 14,3 C 15,8 C 55 % 1013,9 hPa 0,0 mm 14,0 km/h (3 Bft) W-SW 0,00 h 5,3 C 19,4 km/h (3 Bft)
30.03.2016 17:00 14,1 C 15,4 C 55 % 1013,4 hPa 0,0 mm 9,2 km/h (2 Bft) W 0,00 h 5,2 C 13,1 km/h (3 Bft)
30.03.2016 18:00 13,2 C 13,8 C 56 % 1013,1 hPa 0,0 mm 2,6 km/h (1 Bft) SW 0,00 h 4,7 C 3,4 km/h (1 Bft)
30.03.2016 19:00 11,7 C 11,9 C 60 % 1013,2 hPa 0,0 mm 1,1 km/h (1 Bft) S 0,00 h 4,2 C 1,3 km/h (1 Bft)
30.03.2016 20:00 9,8 C 9,6 C 67 % 1013,3 hPa 0,0 mm 0,2 km/h (0 Bft) O-SO 0,00 h 4,0 C 0,4 km/h (0 Bft)
30.03.2016 21:00 9,1 C 8,8 C 72 % 1013,4 hPa 0,0 mm 0,9 km/h (0 Bft) SO 0,00 h 4,3 C 1,4 km/h (1 Bft)
30.03.2016 22:00 7,7 C 7,5 C 76 % 1013,5 hPa 0,0 mm 0,1 km/h (0 Bft) N 0,00 h 3,6 C 0,3 km/h (0 Bft)
30.03.2016 23:00 7,0 C 6,9 C 77 % 1013,1 hPa 0,0 mm 0,0 km/h (0 Bft) N 0,00 h 3,2 C 0,0 km/h (0 Bft)
31.03.2016 00:00 6,8 C 6,6 C 77 % 1012,2 hPa 0,0 mm 0,5 km/h (0 Bft) O 0,00 h 3,1 C 1,3 km/h (1 Bft)
31.03.2016 01:00 6,2 C 6,0 C 77 % 1011,8 hPa 0,0 mm 3,1 km/h (1 Bft) SW 0,00 h 2,5 C 5,5 km/h (1 Bft)
31.03.2016 02:00 4,4 C 4,2 C 78 % 1011,6 hPa 0,0 mm 0,8 km/h (0 Bft) NO 0,00 h 1,0 C 1,2 km/h (1 Bft)
31.03.2016 03:00 3,2 C 2,9 C 82 % 1011,3 hPa 0,0 mm 0,1 km/h (0 Bft) N 0,00 h 0,4 C 0,0 km/h (0 Bft)
31.03.2016 04:00 3,4 C 3,2 C 85 % 1011,1 hPa 0,0 mm 0,1 km/h (0 Bft) SO 0,00 h 1,1 C 0,7 km/h (0 Bft)
31.03.2016 05:00 3,8 C 3,8 C 82 % 1011,1 hPa 0,0 mm 1,0 km/h (0 Bft) O-SO 0,00 h 1,0 C 0,3 km/h (0 Bft)
31.03.2016 06:00 3,9 C 4,3 C 79 % 1010,9 hPa 0,0 mm 0,6 km/h (0 Bft) S 0,00 h 0,6 C 0,5 km/h (0 Bft)
31.03.2016 07:00 4,5 C 6,1 C 78 % 1010,5 hPa 0,0 mm 0,0 km/h (0 Bft) N 0,17 h 1,1 C 0,0 km/h (0 Bft)
31.03.2016 08:00 8,1 C 11,1 C 72 % 1010,6 hPa 0,0 mm 0,1 km/h (0 Bft) N 0,57 h 3,4 C 0,7 km/h (0 Bft)
31.03.2016 09:00 15,0 C 22,3 C 57 % 1010,9 hPa 0,0 mm 1,6 km/h (1 Bft) NO 1,00 h 6,4 C 3,1 km/h (1 Bft)
31.03.2016 10:00 19,0 C 25,9 C 43 % 1011,5 hPa 0,0 mm 2,9 km/h (1 Bft) N-NW 1,00 h 6,2 C 4,6 km/h (1 Bft)
31.03.2016 11:00 20,5 C 26,2 C 37 % 1011,7 hPa 0,0 mm 4,8 km/h (1 Bft) O-NO 1,00 h 5,2 C 7,4 km/h (2 Bft)
31.03.2016 12:00 21,6 C 26,8 C 34 % 1011,1 hPa 0,0 mm 6,0 km/h (2 Bft) W-SW 1,00 h 4,9 C 8,4 km/h (2 Bft)
31.03.2016 13:00 21,9 C 25,3 C 31 % 1010,4 hPa 0,0 mm 6,2 km/h (2 Bft) NW 0,33 h 3,9 C 8,9 km/h (2 Bft)
31.03.2016 14:00 23,0 C 27,8 C 27 % 1009,6 hPa 0,0 mm 6,5 km/h (2 Bft) NW 0,83 h 3,1 C 7,9 km/h (2 Bft)
31.03.2016 15:00 22,0 C 25,2 C 27 % 1009,0 hPa 0,0 mm 8,2 km/h (2 Bft) W-SW 0,42 h 2,1 C 11,4 km/h (2 Bft)
31.03.2016 16:00 20,1 C 21,4 C 31 % 1008,4 hPa 0,0 mm 5,2 km/h (1 Bft) O-NO 0,00 h 2,3 C 6,2 km/h (2 Bft)
31.03.2016 17:00 19,2 C 19,9 C 31 % 1007,8 hPa 0,0 mm 7,9 km/h (2 Bft) W-SW 0,00 h 1,7 C 11,9 km/h (2 Bft)
31.03.2016 18:00 18,0 C 18,4 C 33 % 1007,6 hPa 0,0 mm 6,0 km/h (2 Bft) N-NO 0,00 h 1,5 C 10,2 km/h (2 Bft)
31.03.2016 19:00 15,7 C 15,8 C 38 % 1007,1 hPa 0,0 mm 0,9 km/h (0 Bft) O-SO 0,00 h 1,4 C 0,7 km/h (0 Bft)
31.03.2016 20:00 13,8 C 13,6 C 43 % 1006,8 hPa 0,0 mm 0,6 km/h (0 Bft) SO 0,00 h 1,4 C 0,5 km/h (0 Bft)
31.03.2016 21:00 11,7 C 11,6 C 49 % 1006,9 hPa 0,0 mm 0,5 km/h (0 Bft) O-SO 0,00 h 1,3 C 1,2 km/h (1 Bft)
31.03.2016 22:00 12,3 C 12,3 C 48 % 1007,1 hPa 0,0 mm 1,4 km/h (1 Bft) O-SO 0,00 h 1,6 C 0,7 km/h (0 Bft)
31.03.2016 23:00 12,9 C 13,1 C 47 % 1007,3 hPa 0,0 mm 1,9 km/h (1 Bft) SO 0,00 h 2,0 C 1,9 km/h (1 Bft)
01.04.2016 00:00 14,4 C 14,4 C 41 % 1007,2 hPa 0,0 mm 2,7 km/h (1 Bft) SW 0,00 h 1,4 C 6,5 km/h (2 Bft)
01.04.2016 01:00 12,0 C 12,0 C 47 % 1007,1 hPa 0,0 mm 1,0 km/h (0 Bft) SO 0,00 h 1,0 C 1,5 km/h (1 Bft)
01.04.2016 02:00 11,6 C 11,5 C 50 % 1007,1 hPa 0,0 mm 0,9 km/h (0 Bft) SO 0,00 h 1,6 C 0,9 km/h (0 Bft)
01.04.2016 03:00 11,2 C 11,5 C 52 % 1007,3 hPa 0,0 mm 1,8 km/h (1 Bft) S-SO 0,00 h 1,6 C 2,6 km/h (1 Bft)
01.04.2016 04:00 10,5 C 11,2 C 51 % 1007,6 hPa 0,0 mm 1,2 km/h (1 Bft) N-NW 0,00 h 0,8 C 0,9 km/h (0 Bft)
01.04.2016 05:00 10,2 C 10,3 C 55 % 1008,8 hPa 0,0 mm 7,6 km/h (2 Bft) W 0,00 h 1,5 C 14,8 km/h (3 Bft)
01.04.2016 06:00 11,7 C 11,5 C 55 % 1010,0 hPa 0,0 mm 12,6 km/h (3 Bft) W-SW 0,00 h 3,0 C 15,0 km/h (3 Bft)
01.04.2016 07:00 10,8 C 10,8 C 60 % 1011,3 hPa 0,0 mm 8,4 km/h (2 Bft) W-NW 0,00 h 3,3 C 12,3 km/h (3 Bft)
01.04.2016 08:00 10,4 C 10,7 C 64 % 1012,7 hPa 0,0 mm 9,3 km/h (2 Bft) NW 0,00 h 4,0 C 9,7 km/h (2 Bft)
01.04.2016 09:00 10,1 C 10,4 C 67 % 1013,7 hPa 0,0 mm 3,5 km/h (1 Bft) W 0,00 h 4,3 C 3,2 km/h (1 Bft)
01.04.2016 10:00 10,8 C 11,5 C 67 % 1014,4 hPa 0,0 mm 5,1 km/h (1 Bft) W 0,00 h 4,9 C 5,6 km/h (1 Bft)
01.04.2016 11:00 12,1 C 14,4 C 65 % 1015,1 hPa 0,0 mm 7,0 km/h (2 Bft) W 0,08 h 5,7 C 8,3 km/h (2 Bft)
01.04.2016 12:00 13,6 C 16,8 C 62 % 1015,7 hPa 0,0 mm 7,7 km/h (2 Bft) W 0,00 h 6,4 C 10,4 km/h (2 Bft)
01.04.2016 13:00 13,8 C 15,7 C 61 % 1016,1 hPa 0,0 mm 7,8 km/h (2 Bft) N-NW 0,00 h 6,3 C 10,1 km/h (2 Bft)
01.04.2016 14:00 11,1 C 11,0 C 72 % 1016,4 hPa 0,0 mm 10,6 km/h (2 Bft) N-NW 0,00 h 6,2 C 14,1 km/h (3 Bft)
01.04.2016 15:00 8,6 C 8,6 C 77 % 1016,7 hPa 0,0 mm 8,0 km/h (2 Bft) NW 0,00 h 4,8 C 9,1 km/h (2 Bft)
01.04.2016 16:00 7,3 C 7,2 C 82 % 1017,0 hPa 0,0 mm 7,4 km/h (2 Bft) O-NO 0,00 h 4,4 C 7,6 km/h (2 Bft)
01.04.2016 17:00 6,8 C 6,8 C 81 % 1017,2 hPa 0,0 mm 3,7 km/h (1 Bft) O-NO 0,00 h 3,8 C 5,3 km/h (1 Bft)
01.04.2016 18:00 6,7 C 6,7 C 83 % 1017,2 hPa 0,0 mm 1,6 km/h (1 Bft) O-NO 0,00 h 4,0 C 1,8 km/h (1 Bft)
01.04.2016 19:00 6,6 C 6,6 C 85 % 1017,6 hPa 0,0 mm 3,2 km/h (1 Bft) NO 0,00 h 4,3 C 5,0 km/h (1 Bft)
01.04.2016 20:00 6,5 C 6,4 C 89 % 1018,0 hPa 0,0 mm 5,0 km/h (1 Bft) NO 0,00 h 4,8 C 7,6 km/h (2 Bft)
01.04.2016 21:00 6,4 C 6,2 C 89 % 1018,1 hPa 0,0 mm 5,8 km/h (2 Bft) NO 0,00 h 4,6 C 9,2 km/h (2 Bft)
01.04.2016 22:00 6,2 C 6,1 C 90 % 1018,0 hPa 0,0 mm 6,9 km/h (2 Bft) NO 0,00 h 4,6 C 9,2 km/h (2 Bft)
01.04.2016 23:00 6,0 C 5,9 C 91 % 1018,0 hPa 0,0 mm 5,3 km/h (1 Bft) NO 0,00 h 4,6 C 5,6 km/h (1 Bft)
02.04.2016 00:00 5,8 C 5,6 C 93 % 1017,8 hPa 0,0 mm 7,6 km/h (2 Bft) O-NO 0,00 h 4,7 C 10,4 km/h (2 Bft)
02.04.2016 01:00 5,8 C 5,7 C 93 % 1017,5 hPa 0,0 mm 3,4 km/h (1 Bft) N-NO 0,00 h 4,8 C 4,1 km/h (1 Bft)
02.04.2016 02:00 5,8 C 5,8 C 93 % 1017,5 hPa 0,0 mm 3,8 km/h (1 Bft) NO 0,00 h 4,8 C 4,5 km/h (1 Bft)
02.04.2016 03:00 5,8 C 5,7 C 93 % 1017,5 hPa 0,0 mm 2,2 km/h (1 Bft) NO 0,00 h 4,7 C 2,6 km/h (1 Bft)
02.04.2016 04:00 5,7 C 5,6 C 93 % 1016,9 hPa 0,0 mm 1,6 km/h (1 Bft) O-NO 0,00 h 4,7 C 2,9 km/h (1 Bft)
02.04.2016 05:00 5,6 C 5,5 C 93 % 1016,6 hPa 0,0 mm 5,2 km/h (1 Bft) NO 0,00 h 4,6 C 6,3 km/h (2 Bft)
02.04.2016 06:00 5,4 C 5,4 C 92 % 1016,5 hPa 0,0 mm 3,4 km/h (1 Bft) O-NO 0,00 h 4,3 C 3,3 km/h (1 Bft)
02.04.2016 07:00 5,5 C 5,6 C 91 % 1016,4 hPa 0,0 mm 2,8 km/h (1 Bft) N-NO 0,00 h 4,1 C 2,4 km/h (1 Bft)
02.04.2016 08:00 5,8 C 6,2 C 88 % 1016,3 hPa 0,0 mm 3,4 km/h (1 Bft) O-NO 0,00 h 4,0 C 5,1 km/h (1 Bft)
02.04.2016 09:00 6,1 C 6,6 C 88 % 1016,5 hPa 0,0 mm 7,4 km/h (2 Bft) NO 0,00 h 4,3 C 9,9 km/h (2 Bft)
02.04.2016 10:00 6,6 C 7,5 C 88 % 1016,5 hPa 0,0 mm 7,1 km/h (2 Bft) O-NO 0,00 h 4,8 C 8,5 km/h (2 Bft)
02.04.2016 11:00 7,1 C 8,9 C 88 % 1016,8 hPa 0,0 mm 5,5 km/h (1 Bft) NO 0,00 h 5,3 C 6,4 km/h (2 Bft)
02.04.2016 12:00 8,1 C 10,6 C 88 % 1016,8 hPa 0,0 mm 6,2 km/h (2 Bft) NO 0,00 h 6,2 C 7,2 km/h (2 Bft)
02.04.2016 13:00 10,1 C 13,2 C 86 % 1016,7 hPa 0,0 mm 7,5 km/h (2 Bft) NO 0,08 h 7,8 C 9,8 km/h (2 Bft)
02.04.2016 14:00 13,0 C 17,1 C 78 % 1016,7 hPa 0,0 mm 9,9 km/h (2 Bft) NO 0,58 h 9,1 C 14,5 km/h (3 Bft)
02.04.2016 15:00 15,4 C 19,5 C 69 % 1016,4 hPa 0,0 mm 10,8 km/h (2 Bft) NO 0,75 h 9,7 C 14,5 km/h (3 Bft)
02.04.2016 16:00 15,8 C 18,3 C 66 % 1015,8 hPa 0,0 mm 12,4 km/h (3 Bft) N-NO 0,00 h 9,4 C 15,8 km/h (3 Bft)
02.04.2016 17:00 15,9 C 17,9 C 65 % 1015,1 hPa 0,0 mm 12,7 km/h (3 Bft) NO 0,00 h 9,3 C 16,5 km/h (3 Bft)
02.04.2016 18:00 15,8 C 16,8 C 66 % 1014,9 hPa 0,0 mm 7,6 km/h (2 Bft) O-NO 0,00 h 9,5 C 8,7 km/h (2 Bft)
02.04.2016 19:00 13,4 C 13,6 C 72 % 1014,8 hPa 0,0 mm 0,6 km/h (0 Bft) O-SO 0,00 h 8,4 C 1,2 km/h (1 Bft)
02.04.2016 20:00 11,2 C 11,0 C 79 % 1014,8 hPa 0,0 mm 1,4 km/h (1 Bft) S-SO 0,00 h 7,7 C 2,1 km/h (1 Bft)
02.04.2016 21:00 9,9 C 9,8 C 82 % 1014,7 hPa 0,0 mm 1,6 km/h (1 Bft) SO 0,00 h 6,9 C 1,8 km/h (1 Bft)
02.04.2016 22:00 8,7 C 8,5 C 81 % 1014,5 hPa 0,0 mm 0,1 km/h (0 Bft) N 0,00 h 5,7 C 0,0 km/h (0 Bft)
02.04.2016 23:00 8,1 C 7,9 C 80 % 1014,0 hPa 0,0 mm 0,6 km/h (0 Bft) S-SO 0,00 h 4,8 C 1,4 km/h (1 Bft)
03.04.2016 00:00 8,3 C 8,3 C 78 % 1013,9 hPa 0,0 mm 0,3 km/h (0 Bft) O-NO 0,00 h 4,6 C 0,3 km/h (0 Bft)
03.04.2016 01:00 8,2 C 8,3 C 76 % 1013,8 hPa 0,0 mm 0,1 km/h (0 Bft) N 0,00 h 4,1 C 0,0 km/h (0 Bft)
03.04.2016 02:00 10,3 C 10,5 C 67 % 1013,8 hPa 0,0 mm 2,5 km/h (1 Bft) S 0,00 h 4,3 C 7,7 km/h (2 Bft)
03.04.2016 03:00 11,1 C 11,3 C 58 % 1013,5 hPa 0,0 mm 1,4 km/h (1 Bft) N-NO 0,00 h 3,2 C 0,6 km/h (0 Bft)
03.04.2016 04:00 11,9 C 11,9 C 55 % 1013,1 hPa 0,0 mm 0,8 km/h (0 Bft) O-SO 0,00 h 3,1 C 1,6 km/h (1 Bft)
03.04.2016 05:00 11,7 C 12,1 C 53 % 1013,4 hPa 0,0 mm 0,1 km/h (0 Bft) N 0,00 h 2,6 C 0,0 km/h (0 Bft)
03.04.2016 06:00 10,8 C 11,1 C 52 % 1013,4 hPa 0,0 mm 0,0 km/h (0 Bft) N 0,00 h 1,4 C 0,0 km/h (0 Bft)
03.04.2016 07:00 10,9 C 11,2 C 52 % 1013,4 hPa 0,0 mm 0,0 km/h (0 Bft) N 0,00 h 1,5 C 0,0 km/h (0 Bft)
03.04.2016 08:00 13,5 C 15,5 C 51 % 1013,6 hPa 0,0 mm 0,1 km/h (0 Bft) N 0,33 h 3,5 C 0,3 km/h (0 Bft)
03.04.2016 09:00 18,4 C 22,8 C 43 % 1014,0 hPa 0,0 mm 1,0 km/h (0 Bft) SW 1,00 h 5,7 C 1,1 km/h (0 Bft)
03.04.2016 10:00 18,6 C 21,1 C 41 % 1014,2 hPa 0,0 mm 0,3 km/h (0 Bft) N 0,58 h 5,2 C 0,3 km/h (0 Bft)
03.04.2016 11:00 19,3 C 21,9 C 40 % 1014,0 hPa 0,0 mm 0,3 km/h (0 Bft) N 0,75 h 5,3 C 0,3 km/h (0 Bft)
03.04.2016 12:00 19,5 C 22,2 C 37 % 1013,8 hPa 0,0 mm 1,9 km/h (1 Bft) O-NO 0,67 h 4,4 C 2,3 km/h (1 Bft)
03.04.2016 13:00 20,9 C 24,0 C 32 % 1013,5 hPa 0,0 mm 6,5 km/h (2 Bft) NO 0,50 h 3,3 C 8,1 km/h (2 Bft)
03.04.2016 14:00 21,5 C 24,7 C 31 % 1013,2 hPa 0,0 mm 8,9 km/h (2 Bft) O-NO 0,42 h 3,4 C 13,1 km/h (3 Bft)
03.04.2016 15:00 23,0 C 26,7 C 28 % 1012,4 hPa 0,0 mm 8,7 km/h (2 Bft) O-NO 0,67 h 3,4 C 11,8 km/h (2 Bft)
03.04.2016 16:00 23,1 C 27,0 C 29 % 1011,6 hPa 0,0 mm 4,6 km/h (1 Bft) NO 1,00 h 3,9 C 5,7 km/h (1 Bft)
03.04.2016 17:00 22,1 C 24,6 C 31 % 1011,1 hPa 0,0 mm 6,0 km/h (2 Bft) O-NO 0,67 h 4,1 C 7,4 km/h (2 Bft)
03.04.2016 18:00 20,7 C 22,5 C 32 % 1010,8 hPa 0,0 mm 3,9 km/h (1 Bft) W-SW 0,33 h 3,5 C 5,0 km/h (1 Bft)
03.04.2016 19:00 17,2 C 17,6 C 36 % 1010,8 hPa 0,0 mm 5,6 km/h (1 Bft) S 0,00 h 2,1 C 6,8 km/h (2 Bft)
03.04.2016 20:00 15,8 C 15,8 C 48 % 1011,0 hPa 0,0 mm 3,8 km/h (1 Bft) SO 0,00 h 4,7 C 3,5 km/h (1 Bft)
03.04.2016 21:00 13,5 C 13,7 C 53 % 1011,2 hPa 0,0 mm 2,1 km/h (1 Bft) SO 0,00 h 4,2 C 2,7 km/h (1 Bft)
03.04.2016 22:00 13,6 C 13,5 C 49 % 1011,0 hPa 0,0 mm 0,3 km/h (0 Bft) O 0,00 h 3,0 C 0,0 km/h (0 Bft)
03.04.2016 23:00 13,7 C 13,8 C 46 % 1010,8 hPa 0,0 mm 0,1 km/h (0 Bft) N 0,00 h 2,4 C 0,3 km/h (0 Bft)
Min-Datum _ 28.03.16 28.03.16 03.04.16 31.03.16 - 03.04.16 - - 28.03.16 03.04.16
_ Min-Zeit 07:30 07:20 15:25 20:00 - 23:00 - - 07:30 23:00
Minimum _ 0,0 C -0,3 C 25 % 1006,7 hPa - 0,0 km/h (0 Bft) - - -1,6 C 0,0 km/h (0 Bft)
Max-Datum _ 31.03.16 31.03.16 02.04.16 01.04.16 29.03.16 29.03.16 - 03.04.16 02.04.16 29.03.16
_ Max-Zeit 14:20 14:15 07:00 21:30 11:45 09:45 - 18:10 15:05 05:25
Maximum _ 23,7 C 29,4 C 93 % 1018,2 hPa 1,4 mm 22,1 km/h
W (4 Bft)
- 0,08 h 9,9 C 52,2 km/h
W (7 Bft)
Durchschnitt _ 10,4 C 11,4 C 65 % 1012,5 hPa #2,1 mm 4,9 km/h (1 Bft) W #22:19 h 3,3 C 6,4 km/h (2 Bft)